sensor_id;sensor_type;location;lat;lon;timestamp;P1;durP1;ratioP1;P2;durP2;ratioP2
17935;SDS011;9093;52.062;4.508;2023-01-29T00:01:37;16.13;;;7.28;;
17935;SDS011;9093;52.062;4.508;2023-01-29T00:04:17;22.38;;;6.72;;
17935;SDS011;9093;52.062;4.508;2023-01-29T00:06:58;13.73;;;4.00;;
17935;SDS011;9093;52.062;4.508;2023-01-29T00:09:38;9.60;;;4.82;;
17935;SDS011;9093;52.062;4.508;2023-01-29T00:12:19;7.50;;;3.80;;
17935;SDS011;9093;52.062;4.508;2023-01-29T00:14:59;8.23;;;4.60;;
17935;SDS011;9093;52.062;4.508;2023-01-29T00:17:39;9.63;;;4.28;;
17935;SDS011;9093;52.062;4.508;2023-01-29T00:20:19;7.82;;;3.92;;
17935;SDS011;9093;52.062;4.508;2023-01-29T00:23:00;9.23;;;4.85;;
17935;SDS011;9093;52.062;4.508;2023-01-29T00:25:40;8.60;;;4.38;;
17935;SDS011;9093;52.062;4.508;2023-01-29T00:28:21;13.88;;;4.97;;
17935;SDS011;9093;52.062;4.508;2023-01-29T00:31:08;8.50;;;4.80;;
17935;SDS011;9093;52.062;4.508;2023-01-29T00:33:50;9.10;;;4.72;;
17935;SDS011;9093;52.062;4.508;2023-01-29T00:36:31;16.33;;;4.80;;
17935;SDS011;9093;52.062;4.508;2023-01-29T00:39:11;10.52;;;4.75;;
17935;SDS011;9093;52.062;4.508;2023-01-29T00:41:51;8.07;;;5.18;;
17935;SDS011;9093;52.062;4.508;2023-01-29T00:44:50;8.60;;;4.43;;
17935;SDS011;9093;52.062;4.508;2023-01-29T00:47:37;9.75;;;5.05;;
17935;SDS011;9093;52.062;4.508;2023-01-29T00:50:17;8.50;;;4.72;;
17935;SDS011;9093;52.062;4.508;2023-01-29T00:52:57;15.38;;;5.18;;
17935;SDS011;9093;52.062;4.508;2023-01-29T00:55:38;12.52;;;6.15;;
17935;SDS011;9093;52.062;4.508;2023-01-29T00:58:18;11.00;;;4.95;;
17935;SDS011;9093;52.062;4.508;2023-01-29T01:01:01;10.93;;;5.05;;
17935;SDS011;9093;52.062;4.508;2023-01-29T01:03:41;12.93;;;6.35;;
17935;SDS011;9093;52.062;4.508;2023-01-29T01:06:22;11.60;;;5.53;;
17935;SDS011;9093;52.062;4.508;2023-01-29T01:09:04;10.80;;;5.05;;
17935;SDS011;9093;52.062;4.508;2023-01-29T01:12:04;9.40;;;4.90;;
17935;SDS011;9093;52.062;4.508;2023-01-29T01:14:44;9.23;;;4.35;;
17935;SDS011;9093;52.062;4.508;2023-01-29T01:17:25;13.57;;;5.55;;
17935;SDS011;9093;52.062;4.508;2023-01-29T01:20:05;11.95;;;5.43;;
17935;SDS011;9093;52.062;4.508;2023-01-29T01:22:46;9.02;;;4.82;;
17935;SDS011;9093;52.062;4.508;2023-01-29T01:25:26;14.65;;;6.53;;
17935;SDS011;9093;52.062;4.508;2023-01-29T01:28:10;11.32;;;5.55;;
17935;SDS011;9093;52.062;4.508;2023-01-29T01:30:50;9.52;;;5.10;;
17935;SDS011;9093;52.062;4.508;2023-01-29T01:33:31;10.82;;;5.20;;
17935;SDS011;9093;52.062;4.508;2023-01-29T01:36:11;14.90;;;5.85;;
17935;SDS011;9093;52.062;4.508;2023-01-29T01:38:52;15.27;;;6.25;;
17935;SDS011;9093;52.062;4.508;2023-01-29T01:41:33;11.50;;;5.40;;
17935;SDS011;9093;52.062;4.508;2023-01-29T01:48:18;13.77;;;5.25;;
17935;SDS011;9093;52.062;4.508;2023-01-29T01:50:40;13.25;;;5.82;;
17935;SDS011;9093;52.062;4.508;2023-01-29T01:53:25;10.80;;;4.93;;
17935;SDS011;9093;52.062;4.508;2023-01-29T01:59:00;9.38;;;5.55;;
17935;SDS011;9093;52.062;4.508;2023-01-29T02:01:41;12.80;;;5.55;;
17935;SDS011;9093;52.062;4.508;2023-01-29T02:04:28;10.23;;;5.00;;
17935;SDS011;9093;52.062;4.508;2023-01-29T02:07:27;10.98;;;5.78;;
17935;SDS011;9093;52.062;4.508;2023-01-29T02:10:26;17.13;;;6.63;;
17935;SDS011;9093;52.062;4.508;2023-01-29T02:13:10;12.35;;;5.65;;
17935;SDS011;9093;52.062;4.508;2023-01-29T02:15:55;13.45;;;5.68;;
17935;SDS011;9093;52.062;4.508;2023-01-29T02:18:35;12.98;;;6.45;;
17935;SDS011;9093;52.062;4.508;2023-01-29T02:21:40;11.40;;;5.90;;
17935;SDS011;9093;52.062;4.508;2023-01-29T02:24:41;15.23;;;7.00;;
17935;SDS011;9093;52.062;4.508;2023-01-29T02:36:40;20.75;;;7.35;;
17935;SDS011;9093;52.062;4.508;2023-01-29T02:39:32;18.08;;;6.78;;
17935;SDS011;9093;52.062;4.508;2023-01-29T02:42:22;16.45;;;6.88;;
17935;SDS011;9093;52.062;4.508;2023-01-29T02:45:17;16.02;;;7.15;;
17935;SDS011;9093;52.062;4.508;2023-01-29T02:48:21;17.80;;;7.50;;
17935;SDS011;9093;52.062;4.508;2023-01-29T02:51:05;13.43;;;6.68;;
17935;SDS011;9093;52.062;4.508;2023-01-29T02:53:56;16.33;;;7.20;;
17935;SDS011;9093;52.062;4.508;2023-01-29T02:56:47;20.58;;;7.72;;
17935;SDS011;9093;52.062;4.508;2023-01-29T02:59:34;19.92;;;7.47;;
17935;SDS011;9093;52.062;4.508;2023-01-29T03:02:20;14.45;;;7.50;;
17935;SDS011;9093;52.062;4.508;2023-01-29T03:05:09;12.00;;;5.70;;
17935;SDS011;9093;52.062;4.508;2023-01-29T03:07:55;18.77;;;8.40;;
17935;SDS011;9093;52.062;4.508;2023-01-29T03:10:43;10.55;;;5.38;;
17935;SDS011;9093;52.062;4.508;2023-01-29T03:13:38;16.63;;;6.80;;
17935;SDS011;9093;52.062;4.508;2023-01-29T03:19:31;17.48;;;7.38;;
17935;SDS011;9093;52.062;4.508;2023-01-29T03:22:15;12.13;;;5.95;;
17935;SDS011;9093;52.062;4.508;2023-01-29T03:24:59;14.75;;;6.45;;
17935;SDS011;9093;52.062;4.508;2023-01-29T03:28:00;18.98;;;6.18;;
17935;SDS011;9093;52.062;4.508;2023-01-29T03:31:05;10.82;;;6.38;;
17935;SDS011;9093;52.062;4.508;2023-01-29T03:34:08;13.23;;;5.97;;
17935;SDS011;9093;52.062;4.508;2023-01-29T03:36:56;15.88;;;6.28;;
17935;SDS011;9093;52.062;4.508;2023-01-29T03:39:44;15.32;;;6.40;;
17935;SDS011;9093;52.062;4.508;2023-01-29T03:51:29;16.63;;;6.35;;
17935;SDS011;9093;52.062;4.508;2023-01-29T03:54:17;15.63;;;6.82;;
17935;SDS011;9093;52.062;4.508;2023-01-29T03:59:59;16.08;;;7.45;;
17935;SDS011;9093;52.062;4.508;2023-01-29T04:03:11;13.40;;;5.80;;
17935;SDS011;9093;52.062;4.508;2023-01-29T04:12:01;11.82;;;6.30;;
17935;SDS011;9093;52.062;4.508;2023-01-29T04:14:48;16.33;;;6.45;;
17935;SDS011;9093;52.062;4.508;2023-01-29T04:17:33;15.00;;;6.15;;
17935;SDS011;9093;52.062;4.508;2023-01-29T04:20:19;12.73;;;6.03;;
17935;SDS011;9093;52.062;4.508;2023-01-29T04:22:59;17.98;;;6.20;;
17935;SDS011;9093;52.062;4.508;2023-01-29T04:25:44;16.17;;;6.82;;
17935;SDS011;9093;52.062;4.508;2023-01-29T04:28:41;10.73;;;5.97;;
17935;SDS011;9093;52.062;4.508;2023-01-29T04:31:33;12.65;;;6.05;;
17935;SDS011;9093;52.062;4.508;2023-01-29T04:34:24;14.32;;;6.32;;
17935;SDS011;9093;52.062;4.508;2023-01-29T04:37:13;16.33;;;6.88;;
17935;SDS011;9093;52.062;4.508;2023-01-29T04:43:35;16.58;;;6.30;;
17935;SDS011;9093;52.062;4.508;2023-01-29T04:46:26;23.33;;;7.05;;
17935;SDS011;9093;52.062;4.508;2023-01-29T04:52:07;11.98;;;6.18;;
17935;SDS011;9093;52.062;4.508;2023-01-29T04:55:42;11.18;;;5.78;;
17935;SDS011;9093;52.062;4.508;2023-01-29T04:58:21;19.85;;;6.78;;
17935;SDS011;9093;52.062;4.508;2023-01-29T05:01:12;19.55;;;5.90;;
17935;SDS011;9093;52.062;4.508;2023-01-29T05:03:55;23.38;;;6.22;;
17935;SDS011;9093;52.062;4.508;2023-01-29T05:06:39;12.35;;;6.10;;
17935;SDS011;9093;52.062;4.508;2023-01-29T05:09:20;12.68;;;6.20;;
17935;SDS011;9093;52.062;4.508;2023-01-29T05:12:02;11.90;;;6.43;;
17935;SDS011;9093;52.062;4.508;2023-01-29T05:14:46;12.15;;;5.82;;
17935;SDS011;9093;52.062;4.508;2023-01-29T05:17:28;8.20;;;4.87;;
17935;SDS011;9093;52.062;4.508;2023-01-29T05:20:09;12.02;;;6.38;;
17935;SDS011;9093;52.062;4.508;2023-01-29T05:22:51;14.82;;;5.82;;
17935;SDS011;9093;52.062;4.508;2023-01-29T05:25:31;15.20;;;6.43;;
17935;SDS011;9093;52.062;4.508;2023-01-29T05:28:12;25.00;;;7.07;;
17935;SDS011;9093;52.062;4.508;2023-01-29T05:30:55;12.88;;;5.97;;
17935;SDS011;9093;52.062;4.508;2023-01-29T05:33:36;15.75;;;5.72;;
17935;SDS011;9093;52.062;4.508;2023-01-29T05:36:16;12.65;;;6.82;;
17935;SDS011;9093;52.062;4.508;2023-01-29T05:38:57;13.20;;;6.25;;
17935;SDS011;9093;52.062;4.508;2023-01-29T05:41:37;14.32;;;6.75;;
17935;SDS011;9093;52.062;4.508;2023-01-29T05:44:17;14.23;;;6.85;;
17935;SDS011;9093;52.062;4.508;2023-01-29T05:46:58;11.30;;;5.70;;
17935;SDS011;9093;52.062;4.508;2023-01-29T05:49:38;13.75;;;5.68;;
17935;SDS011;9093;52.062;4.508;2023-01-29T05:52:18;12.73;;;6.32;;
17935;SDS011;9093;52.062;4.508;2023-01-29T05:54:59;17.83;;;6.78;;
17935;SDS011;9093;52.062;4.508;2023-01-29T05:57:39;13.20;;;6.55;;
17935;SDS011;9093;52.062;4.508;2023-01-29T06:00:20;10.60;;;6.43;;
17935;SDS011;9093;52.062;4.508;2023-01-29T06:03:00;12.57;;;6.90;;
17935;SDS011;9093;52.062;4.508;2023-01-29T06:05:41;15.27;;;6.57;;
17935;SDS011;9093;52.062;4.508;2023-01-29T06:08:21;8.73;;;5.68;;
17935;SDS011;9093;52.062;4.508;2023-01-29T06:11:02;12.82;;;5.88;;
17935;SDS011;9093;52.062;4.508;2023-01-29T06:13:42;12.05;;;5.95;;
17935;SDS011;9093;52.062;4.508;2023-01-29T06:16:23;13.38;;;5.82;;
17935;SDS011;9093;52.062;4.508;2023-01-29T06:19:04;16.20;;;7.57;;
17935;SDS011;9093;52.062;4.508;2023-01-29T06:21:44;11.30;;;5.85;;
17935;SDS011;9093;52.062;4.508;2023-01-29T06:24:24;16.98;;;7.82;;
17935;SDS011;9093;52.062;4.508;2023-01-29T06:27:05;15.35;;;7.40;;
17935;SDS011;9093;52.062;4.508;2023-01-29T06:29:45;12.23;;;6.18;;
17935;SDS011;9093;52.062;4.508;2023-01-29T06:32:26;20.73;;;7.32;;
17935;SDS011;9093;52.062;4.508;2023-01-29T06:35:06;11.98;;;5.78;;
17935;SDS011;9093;52.062;4.508;2023-01-29T06:37:48;11.53;;;5.80;;
17935;SDS011;9093;52.062;4.508;2023-01-29T06:40:29;15.00;;;7.07;;
17935;SDS011;9093;52.062;4.508;2023-01-29T06:43:09;10.40;;;5.72;;
17935;SDS011;9093;52.062;4.508;2023-01-29T06:45:50;14.65;;;6.70;;
17935;SDS011;9093;52.062;4.508;2023-01-29T06:48:35;10.75;;;5.95;;
17935;SDS011;9093;52.062;4.508;2023-01-29T06:51:16;17.15;;;6.47;;
17935;SDS011;9093;52.062;4.508;2023-01-29T06:53:56;15.73;;;6.53;;
17935;SDS011;9093;52.062;4.508;2023-01-29T06:56:36;11.52;;;6.68;;
17935;SDS011;9093;52.062;4.508;2023-01-29T06:59:17;13.55;;;6.82;;
17935;SDS011;9093;52.062;4.508;2023-01-29T07:01:57;12.35;;;6.22;;
17935;SDS011;9093;52.062;4.508;2023-01-29T07:04:37;11.77;;;5.78;;
17935;SDS011;9093;52.062;4.508;2023-01-29T07:07:18;17.63;;;6.32;;
17935;SDS011;9093;52.062;4.508;2023-01-29T07:09:58;18.85;;;7.20;;
17935;SDS011;9093;52.062;4.508;2023-01-29T07:12:39;14.57;;;6.13;;
17935;SDS011;9093;52.062;4.508;2023-01-29T07:15:19;15.75;;;7.22;;
17935;SDS011;9093;52.062;4.508;2023-01-29T07:18:01;11.68;;;6.07;;
17935;SDS011;9093;52.062;4.508;2023-01-29T07:20:51;12.82;;;6.20;;
17935;SDS011;9093;52.062;4.508;2023-01-29T07:23:31;13.88;;;5.80;;
17935;SDS011;9093;52.062;4.508;2023-01-29T07:26:12;14.90;;;6.88;;
17935;SDS011;9093;52.062;4.508;2023-01-29T07:28:53;16.63;;;6.93;;
17935;SDS011;9093;52.062;4.508;2023-01-29T07:31:33;13.80;;;6.75;;
17935;SDS011;9093;52.062;4.508;2023-01-29T07:34:13;14.10;;;6.97;;
17935;SDS011;9093;52.062;4.508;2023-01-29T07:36:54;17.90;;;6.63;;
17935;SDS011;9093;52.062;4.508;2023-01-29T07:39:35;11.05;;;6.07;;
17935;SDS011;9093;52.062;4.508;2023-01-29T07:42:16;16.30;;;6.53;;
17935;SDS011;9093;52.062;4.508;2023-01-29T07:44:56;14.98;;;6.88;;
17935;SDS011;9093;52.062;4.508;2023-01-29T07:47:36;17.63;;;7.38;;
17935;SDS011;9093;52.062;4.508;2023-01-29T07:50:20;14.48;;;6.47;;
17935;SDS011;9093;52.062;4.508;2023-01-29T07:53:01;18.08;;;7.07;;
17935;SDS011;9093;52.062;4.508;2023-01-29T07:55:42;12.90;;;7.18;;
17935;SDS011;9093;52.062;4.508;2023-01-29T07:58:24;14.10;;;6.60;;
17935;SDS011;9093;52.062;4.508;2023-01-29T08:01:05;18.63;;;6.70;;
17935;SDS011;9093;52.062;4.508;2023-01-29T08:03:46;12.73;;;7.00;;
17935;SDS011;9093;52.062;4.508;2023-01-29T08:06:26;14.55;;;7.15;;
17935;SDS011;9093;52.062;4.508;2023-01-29T08:09:07;17.80;;;7.57;;
17935;SDS011;9093;52.062;4.508;2023-01-29T08:14:30;15.60;;;5.73;;
17935;SDS011;9093;52.062;4.508;2023-01-29T08:17:11;18.10;;;7.70;;
17935;SDS011;9093;52.062;4.508;2023-01-29T08:19:52;14.57;;;7.07;;
17935;SDS011;9093;52.062;4.508;2023-01-29T08:22:32;14.05;;;7.47;;
17935;SDS011;9093;52.062;4.508;2023-01-29T08:25:12;16.50;;;7.80;;
17935;SDS011;9093;52.062;4.508;2023-01-29T08:27:54;14.95;;;7.03;;
17935;SDS011;9093;52.062;4.508;2023-01-29T08:30:36;14.50;;;6.90;;
17935;SDS011;9093;52.062;4.508;2023-01-29T08:33:17;13.48;;;7.40;;
17935;SDS011;9093;52.062;4.508;2023-01-29T08:35:57;22.00;;;8.15;;
17935;SDS011;9093;52.062;4.508;2023-01-29T08:38:37;15.93;;;7.57;;
17935;SDS011;9093;52.062;4.508;2023-01-29T08:41:18;20.45;;;8.70;;
17935;SDS011;9093;52.062;4.508;2023-01-29T08:43:59;18.80;;;7.95;;
17935;SDS011;9093;52.062;4.508;2023-01-29T08:46:41;22.65;;;6.30;;
17935;SDS011;9093;52.062;4.508;2023-01-29T08:49:21;15.05;;;7.75;;
17935;SDS011;9093;52.062;4.508;2023-01-29T08:52:01;15.70;;;7.50;;
17935;SDS011;9093;52.062;4.508;2023-01-29T08:54:42;20.30;;;7.68;;
17935;SDS011;9093;52.062;4.508;2023-01-29T08:57:22;17.23;;;8.63;;
17935;SDS011;9093;52.062;4.508;2023-01-29T09:00:03;15.25;;;8.13;;
17935;SDS011;9093;52.062;4.508;2023-01-29T09:02:44;18.10;;;7.90;;
17935;SDS011;9093;52.062;4.508;2023-01-29T09:05:25;14.30;;;6.75;;
17935;SDS011;9093;52.062;4.508;2023-01-29T09:08:07;14.40;;;6.25;;
17935;SDS011;9093;52.062;4.508;2023-01-29T09:10:48;18.15;;;8.02;;
17935;SDS011;9093;52.062;4.508;2023-01-29T09:13:28;15.35;;;7.10;;
17935;SDS011;9093;52.062;4.508;2023-01-29T09:16:09;23.48;;;7.43;;
17935;SDS011;9093;52.062;4.508;2023-01-29T09:18:49;19.23;;;8.65;;
17935;SDS011;9093;52.062;4.508;2023-01-29T09:21:29;23.77;;;9.05;;
17935;SDS011;9093;52.062;4.508;2023-01-29T09:24:10;17.05;;;7.43;;
17935;SDS011;9093;52.062;4.508;2023-01-29T09:26:50;16.92;;;8.48;;
17935;SDS011;9093;52.062;4.508;2023-01-29T09:29:30;20.00;;;8.35;;
17935;SDS011;9093;52.062;4.508;2023-01-29T09:32:11;14.00;;;6.82;;
17935;SDS011;9093;52.062;4.508;2023-01-29T09:34:51;19.70;;;8.07;;
17935;SDS011;9093;52.062;4.508;2023-01-29T09:37:31;21.30;;;9.55;;
17935;SDS011;9093;52.062;4.508;2023-01-29T09:43:08;16.65;;;8.52;;
17935;SDS011;9093;52.062;4.508;2023-01-29T09:45:55;22.05;;;9.48;;
17935;SDS011;9093;52.062;4.508;2023-01-29T09:48:43;11.45;;;5.95;;
17935;SDS011;9093;52.062;4.508;2023-01-29T09:51:27;20.60;;;9.50;;
17935;SDS011;9093;52.062;4.508;2023-01-29T09:57:14;16.92;;;7.82;;
17935;SDS011;9093;52.062;4.508;2023-01-29T10:00:01;16.05;;;8.27;;
17935;SDS011;9093;52.062;4.508;2023-01-29T10:02:52;22.77;;;9.80;;
17935;SDS011;9093;52.062;4.508;2023-01-29T10:15:09;18.50;;;9.18;;
17935;SDS011;9093;52.062;4.508;2023-01-29T10:21:24;21.83;;;9.70;;
17935;SDS011;9093;52.062;4.508;2023-01-29T10:27:17;24.90;;;10.05;;
17935;SDS011;9093;52.062;4.508;2023-01-29T10:29:59;23.75;;;10.52;;
17935;SDS011;9093;52.062;4.508;2023-01-29T10:32:43;23.98;;;11.20;;
17935;SDS011;9093;52.062;4.508;2023-01-29T10:35:27;19.48;;;8.48;;
17935;SDS011;9093;52.062;4.508;2023-01-29T10:44:33;22.52;;;8.77;;
17935;SDS011;9093;52.062;4.508;2023-01-29T10:56:22;17.77;;;8.80;;
17935;SDS011;9093;52.062;4.508;2023-01-29T11:02:23;17.42;;;8.43;;
17935;SDS011;9093;52.062;4.508;2023-01-29T11:05:07;21.65;;;8.93;;
17935;SDS011;9093;52.062;4.508;2023-01-29T11:08:15;23.05;;;9.60;;
17935;SDS011;9093;52.062;4.508;2023-01-29T11:14:02;20.92;;;8.73;;
17935;SDS011;9093;52.062;4.508;2023-01-29T11:16:47;19.90;;;8.52;;
17935;SDS011;9093;52.062;4.508;2023-01-29T11:19:38;35.03;;;13.20;;
17935;SDS011;9093;52.062;4.508;2023-01-29T11:22:23;18.35;;;7.90;;
17935;SDS011;9093;52.062;4.508;2023-01-29T11:28:01;24.92;;;9.43;;
17935;SDS011;9093;52.062;4.508;2023-01-29T11:30:44;25.38;;;9.30;;
17935;SDS011;9093;52.062;4.508;2023-01-29T11:33:24;20.73;;;10.30;;
17935;SDS011;9093;52.062;4.508;2023-01-29T11:36:20;20.38;;;8.68;;
17935;SDS011;9093;52.062;4.508;2023-01-29T11:39:13;20.65;;;9.18;;
17935;SDS011;9093;52.062;4.508;2023-01-29T11:42:02;18.92;;;8.63;;
17935;SDS011;9093;52.062;4.508;2023-01-29T11:44:43;19.95;;;9.05;;
17935;SDS011;9093;52.062;4.508;2023-01-29T11:47:27;23.67;;;9.07;;
17935;SDS011;9093;52.062;4.508;2023-01-29T11:50:16;32.22;;;11.65;;
17935;SDS011;9093;52.062;4.508;2023-01-29T11:53:02;23.63;;;8.88;;
17935;SDS011;9093;52.062;4.508;2023-01-29T11:55:45;18.20;;;9.20;;
17935;SDS011;9093;52.062;4.508;2023-01-29T11:58:36;20.58;;;10.05;;
17935;SDS011;9093;52.062;4.508;2023-01-29T12:01:17;27.58;;;9.63;;
17935;SDS011;9093;52.062;4.508;2023-01-29T12:04:23;27.98;;;8.82;;
17935;SDS011;9093;52.062;4.508;2023-01-29T12:07:09;21.20;;;9.82;;
17935;SDS011;9093;52.062;4.508;2023-01-29T12:09:53;24.73;;;9.95;;
17935;SDS011;9093;52.062;4.508;2023-01-29T12:12:45;22.13;;;9.77;;
17935;SDS011;9093;52.062;4.508;2023-01-29T12:15:25;22.67;;;10.38;;
17935;SDS011;9093;52.062;4.508;2023-01-29T12:18:28;23.42;;;8.65;;
17935;SDS011;9093;52.062;4.508;2023-01-29T12:24:48;27.67;;;9.13;;
17935;SDS011;9093;52.062;4.508;2023-01-29T12:30:34;20.42;;;8.30;;
17935;SDS011;9093;52.062;4.508;2023-01-29T12:33:23;20.13;;;8.55;;
17935;SDS011;9093;52.062;4.508;2023-01-29T12:36:22;19.80;;;8.57;;
17935;SDS011;9093;52.062;4.508;2023-01-29T12:39:08;22.50;;;8.77;;
17935;SDS011;9093;52.062;4.508;2023-01-29T12:41:54;28.52;;;8.52;;
17935;SDS011;9093;52.062;4.508;2023-01-29T12:44:45;22.67;;;8.20;;
17935;SDS011;9093;52.062;4.508;2023-01-29T12:47:34;15.10;;;7.50;;
17935;SDS011;9093;52.062;4.508;2023-01-29T12:56:04;18.35;;;7.57;;
17935;SDS011;9093;52.062;4.508;2023-01-29T13:07:54;17.27;;;8.10;;
17935;SDS011;9093;52.062;4.508;2023-01-29T13:10:41;26.45;;;11.65;;
17935;SDS011;9093;52.062;4.508;2023-01-29T13:16:12;21.80;;;8.60;;
17935;SDS011;9093;52.062;4.508;2023-01-29T13:18:57;20.17;;;8.95;;
17935;SDS011;9093;52.062;4.508;2023-01-29T13:21:40;25.42;;;10.85;;
17935;SDS011;9093;52.062;4.508;2023-01-29T13:24:23;16.55;;;8.27;;
17935;SDS011;9093;52.062;4.508;2023-01-29T13:29:55;51.05;;;17.38;;
17935;SDS011;9093;52.062;4.508;2023-01-29T13:32:36;15.55;;;7.32;;
17935;SDS011;9093;52.062;4.508;2023-01-29T13:35:17;16.67;;;8.13;;
17935;SDS011;9093;52.062;4.508;2023-01-29T13:38:01;17.23;;;7.45;;
17935;SDS011;9093;52.062;4.508;2023-01-29T13:40:46;15.95;;;7.88;;
17935;SDS011;9093;52.062;4.508;2023-01-29T13:43:33;16.83;;;7.90;;
17935;SDS011;9093;52.062;4.508;2023-01-29T13:46:16;26.73;;;9.50;;
17935;SDS011;9093;52.062;4.508;2023-01-29T13:49:00;17.27;;;7.82;;
17935;SDS011;9093;52.062;4.508;2023-01-29T13:51:43;18.50;;;8.35;;
17935;SDS011;9093;52.062;4.508;2023-01-29T13:54:24;15.65;;;7.88;;
17935;SDS011;9093;52.062;4.508;2023-01-29T13:57:08;18.23;;;7.47;;
17935;SDS011;9093;52.062;4.508;2023-01-29T14:05:55;16.85;;;7.82;;
17935;SDS011;9093;52.062;4.508;2023-01-29T14:08:42;22.58;;;7.75;;
17935;SDS011;9093;52.062;4.508;2023-01-29T14:11:27;15.50;;;6.68;;
17935;SDS011;9093;52.062;4.508;2023-01-29T14:17:27;20.63;;;7.38;;
17935;SDS011;9093;52.062;4.508;2023-01-29T14:20:16;21.00;;;7.18;;
17935;SDS011;9093;52.062;4.508;2023-01-29T14:22:59;13.80;;;7.32;;
17935;SDS011;9093;52.062;4.508;2023-01-29T14:25:43;18.98;;;7.43;;
17935;SDS011;9093;52.062;4.508;2023-01-29T14:28:27;17.63;;;6.80;;
17935;SDS011;9093;52.062;4.508;2023-01-29T14:31:09;12.85;;;7.03;;
17935;SDS011;9093;52.062;4.508;2023-01-29T14:33:50;15.98;;;7.45;;
17935;SDS011;9093;52.062;4.508;2023-01-29T14:36:37;18.58;;;7.70;;
17935;SDS011;9093;52.062;4.508;2023-01-29T14:39:21;15.65;;;6.05;;
17935;SDS011;9093;52.062;4.508;2023-01-29T14:42:26;20.25;;;6.45;;
17935;SDS011;9093;52.062;4.508;2023-01-29T14:47:56;19.95;;;7.68;;
17935;SDS011;9093;52.062;4.508;2023-01-29T14:50:41;18.70;;;7.63;;
17935;SDS011;9093;52.062;4.508;2023-01-29T14:53:47;13.05;;;6.50;;
17935;SDS011;9093;52.062;4.508;2023-01-29T14:59:19;27.85;;;8.27;;
17935;SDS011;9093;52.062;4.508;2023-01-29T15:02:17;16.77;;;7.30;;
17935;SDS011;9093;52.062;4.508;2023-01-29T15:05:02;21.35;;;7.43;;
17935;SDS011;9093;52.062;4.508;2023-01-29T15:07:47;14.20;;;7.03;;
17935;SDS011;9093;52.062;4.508;2023-01-29T15:10:47;12.63;;;6.60;;
17935;SDS011;9093;52.062;4.508;2023-01-29T15:13:59;14.60;;;6.45;;
17935;SDS011;9093;52.062;4.508;2023-01-29T15:19:52;13.55;;;5.18;;
17935;SDS011;9093;52.062;4.508;2023-01-29T15:22:40;13.15;;;6.40;;
17935;SDS011;9093;52.062;4.508;2023-01-29T15:25:22;13.63;;;6.35;;
17935;SDS011;9093;52.062;4.508;2023-01-29T15:28:03;17.35;;;7.43;;
17935;SDS011;9093;52.062;4.508;2023-01-29T15:30:50;14.90;;;6.18;;
17935;SDS011;9093;52.062;4.508;2023-01-29T15:33:34;15.40;;;6.68;;
17935;SDS011;9093;52.062;4.508;2023-01-29T15:36:21;17.55;;;6.63;;
17935;SDS011;9093;52.062;4.508;2023-01-29T15:41:50;16.38;;;6.82;;
17935;SDS011;9093;52.062;4.508;2023-01-29T15:44:50;11.65;;;6.25;;
17935;SDS011;9093;52.062;4.508;2023-01-29T15:47:33;18.15;;;7.18;;
17935;SDS011;9093;52.062;4.508;2023-01-29T15:50:14;13.35;;;6.35;;
17935;SDS011;9093;52.062;4.508;2023-01-29T15:52:54;12.02;;;7.07;;
17935;SDS011;9093;52.062;4.508;2023-01-29T15:55:39;17.48;;;7.55;;
17935;SDS011;9093;52.062;4.508;2023-01-29T15:58:21;15.43;;;7.10;;
17935;SDS011;9093;52.062;4.508;2023-01-29T16:01:09;15.80;;;6.70;;
17935;SDS011;9093;52.062;4.508;2023-01-29T16:03:50;19.05;;;6.95;;
17935;SDS011;9093;52.062;4.508;2023-01-29T16:06:35;18.30;;;6.47;;
17935;SDS011;9093;52.062;4.508;2023-01-29T16:09:19;12.48;;;5.75;;
17935;SDS011;9093;52.062;4.508;2023-01-29T16:12:05;16.25;;;6.40;;
17935;SDS011;9093;52.062;4.508;2023-01-29T16:14:45;18.33;;;7.32;;
17935;SDS011;9093;52.062;4.508;2023-01-29T16:17:32;12.25;;;6.43;;
17935;SDS011;9093;52.062;4.508;2023-01-29T16:20:20;15.02;;;7.53;;
17935;SDS011;9093;52.062;4.508;2023-01-29T16:26:46;17.52;;;7.50;;
17935;SDS011;9093;52.062;4.508;2023-01-29T16:29:29;15.38;;;6.97;;
17935;SDS011;9093;52.062;4.508;2023-01-29T16:34:55;16.25;;;6.15;;
17935;SDS011;9093;52.062;4.508;2023-01-29T16:37:38;14.73;;;8.25;;
17935;SDS011;9093;52.062;4.508;2023-01-29T16:40:32;18.02;;;7.15;;
17935;SDS011;9093;52.062;4.508;2023-01-29T16:43:40;13.15;;;6.30;;
17935;SDS011;9093;52.062;4.508;2023-01-29T16:52:19;24.88;;;7.40;;
17935;SDS011;9093;52.062;4.508;2023-01-29T16:58:02;16.63;;;7.32;;
17935;SDS011;9093;52.062;4.508;2023-01-29T17:01:03;14.95;;;6.63;;
17935;SDS011;9093;52.062;4.508;2023-01-29T17:06:59;9.18;;;5.72;;
17935;SDS011;9093;52.062;4.508;2023-01-29T17:09:41;13.75;;;7.18;;
17935;SDS011;9093;52.062;4.508;2023-01-29T17:12:23;14.30;;;6.35;;
17935;SDS011;9093;52.062;4.508;2023-01-29T17:15:29;19.38;;;7.68;;
17935;SDS011;9093;52.062;4.508;2023-01-29T17:21:01;28.50;;;7.85;;
17935;SDS011;9093;52.062;4.508;2023-01-29T17:23:41;13.18;;;6.72;;
17935;SDS011;9093;52.062;4.508;2023-01-29T17:26:21;16.40;;;6.28;;
17935;SDS011;9093;52.062;4.508;2023-01-29T17:29:03;15.38;;;7.43;;
17935;SDS011;9093;52.062;4.508;2023-01-29T17:31:43;15.35;;;7.13;;
17935;SDS011;9093;52.062;4.508;2023-01-29T17:34:24;23.33;;;8.73;;
17935;SDS011;9093;52.062;4.508;2023-01-29T17:37:05;20.52;;;8.38;;
17935;SDS011;9093;52.062;4.508;2023-01-29T17:39:45;18.67;;;7.65;;
17935;SDS011;9093;52.062;4.508;2023-01-29T17:42:29;28.65;;;8.05;;
17935;SDS011;9093;52.062;4.508;2023-01-29T17:45:09;17.85;;;7.47;;
17935;SDS011;9093;52.062;4.508;2023-01-29T17:47:50;19.92;;;8.05;;
17935;SDS011;9093;52.062;4.508;2023-01-29T17:50:30;16.63;;;8.35;;
17935;SDS011;9093;52.062;4.508;2023-01-29T17:53:13;15.43;;;7.63;;
17935;SDS011;9093;52.062;4.508;2023-01-29T17:55:54;20.55;;;7.88;;
17935;SDS011;9093;52.062;4.508;2023-01-29T17:58:35;24.73;;;8.13;;
17935;SDS011;9093;52.062;4.508;2023-01-29T18:01:15;20.50;;;9.10;;
17935;SDS011;9093;52.062;4.508;2023-01-29T18:03:55;20.42;;;7.43;;
17935;SDS011;9093;52.062;4.508;2023-01-29T18:06:36;16.67;;;7.72;;
17935;SDS011;9093;52.062;4.508;2023-01-29T18:09:17;18.85;;;8.27;;
17935;SDS011;9093;52.062;4.508;2023-01-29T18:11:59;18.10;;;9.02;;
17935;SDS011;9093;52.062;4.508;2023-01-29T18:14:39;23.15;;;8.13;;
17935;SDS011;9093;52.062;4.508;2023-01-29T18:17:20;25.60;;;7.15;;
17935;SDS011;9093;52.062;4.508;2023-01-29T18:20:02;16.35;;;5.88;;
17935;SDS011;9093;52.062;4.508;2023-01-29T18:22:43;16.95;;;7.38;;
17935;SDS011;9093;52.062;4.508;2023-01-29T18:25:23;17.35;;;7.40;;
17935;SDS011;9093;52.062;4.508;2023-01-29T18:28:04;18.70;;;8.23;;
17935;SDS011;9093;52.062;4.508;2023-01-29T18:30:45;18.55;;;7.13;;
17935;SDS011;9093;52.062;4.508;2023-01-29T18:33:26;17.23;;;7.10;;
17935;SDS011;9093;52.062;4.508;2023-01-29T18:36:06;15.20;;;7.55;;
17935;SDS011;9093;52.062;4.508;2023-01-29T18:38:47;25.95;;;7.82;;
17935;SDS011;9093;52.062;4.508;2023-01-29T18:41:27;14.45;;;6.30;;
17935;SDS011;9093;52.062;4.508;2023-01-29T18:44:11;17.88;;;7.32;;
17935;SDS011;9093;52.062;4.508;2023-01-29T18:46:51;13.30;;;7.10;;
17935;SDS011;9093;52.062;4.508;2023-01-29T18:49:31;14.93;;;7.85;;
17935;SDS011;9093;52.062;4.508;2023-01-29T18:52:12;15.45;;;7.43;;
17935;SDS011;9093;52.062;4.508;2023-01-29T18:54:52;14.55;;;6.78;;
17935;SDS011;9093;52.062;4.508;2023-01-29T18:57:32;14.13;;;6.80;;
17935;SDS011;9093;52.062;4.508;2023-01-29T19:00:13;15.40;;;7.43;;
17935;SDS011;9093;52.062;4.508;2023-01-29T19:02:53;15.13;;;6.90;;
17935;SDS011;9093;52.062;4.508;2023-01-29T19:05:33;18.33;;;8.20;;
17935;SDS011;9093;52.062;4.508;2023-01-29T19:08:14;14.20;;;6.72;;
17935;SDS011;9093;52.062;4.508;2023-01-29T19:10:54;15.50;;;6.32;;
17935;SDS011;9093;52.062;4.508;2023-01-29T19:13:35;13.48;;;7.50;;